Time;durP1;ratioP1;P1;durP2;ratioP2;P2;SDS_P1;SDS_P2;PMS_P1;PMS_P2;Temp;Humidity;BMP_temperature;BMP_pressure;BME280_temperature;BME280_humidity;BME280_pressure;Samples;Min_cycle;Max_cycle;Signal;HPM_P1;HPM_P2
2021/11/09 00:00:37;;;;;;;;;;;;;;;;;;2121115;28;20019;-48
2021/11/09 00:01:43;;;;;;;;;;;;;;;;;;2116534;28;19924;-49
2021/11/09 00:02:45;;;;;;;;;;;;;;;;;;2115010;28;20457;-48
2021/11/09 00:03:49;;;;;;;;;;;;;;;;;;2118918;27;19923;-49
2021/11/09 00:04:52;;;;;;;;;;;;;;;;;;2115140;28;19984;-47
2021/11/09 00:05:57;;;;;;;;;;;;;;;;;;2115854;28;20038;-48
2021/11/09 00:07:03;;;;;;;;;;;;;;;;;;2120323;28;19923;-49
2021/11/09 00:08:10;;;;;;;;;;;;;;;;;;2123683;28;19930;-48
2021/11/09 00:09:15;;;;;;;;;;;;;;;;;;2122450;27;20019;-49
2021/11/09 00:10:16;;;;;;;;;;;;;;;;;;2123208;28;19923;-48
2021/11/09 00:11:17;;;;;;;;;;;;;;;;;;2123189;28;19923;-48
2021/11/09 00:12:17;;;;;;;;;;;;;;;;;;2122248;27;19927;-48
2021/11/09 00:13:18;;;;;;;;;;;;;;;;;;2131872;27;19923;-46
2021/11/09 00:14:19;;;;;;;;;;;;;;;;;;2131983;27;19923;-48
2021/11/09 00:15:20;;;;;;;;;;;;;;;;;;2123842;27;19923;-48
2021/11/09 00:16:21;;;;;;;;;;;;;;;;;;2131868;27;19923;-47
2021/11/09 00:17:22;;;;;;;;;;;;;;;;;;2131907;27;19927;-47
2021/11/09 00:18:22;;;;;;;;;;;;;;;;;;2120984;27;19934;-47
2021/11/09 00:19:23;;;;;;;;;;;;;;;;;;2123541;28;19931;-48
2021/11/09 00:20:24;;;;;;;;;;;;;;;;;;2123350;28;20300;-47
2021/11/09 00:21:25;;;;;;;;;;;;;;;;;;2124373;27;20386;-48
2021/11/09 00:22:25;;;;;;;;;;;;;;;;;;2123476;28;19928;-47
2021/11/09 00:23:27;;;;;;;;;;;;;;;;;;2123159;27;20417;-50
2021/11/09 00:24:27;;;;;;;;;;;;;;;;;;2119840;27;19928;-48
2021/11/09 00:25:28;;;;;;;;;;;;;;;;;;2123374;28;19923;-48
2021/11/09 00:26:29;;;;;;;;;;;;;;;;;;2122969;28;19923;-49
2021/11/09 00:27:30;;;;;;;;;;;;;;;;;;2122416;27;19962;-47
2021/11/09 00:28:31;;;;;;;;;;;;;;;;;;2115004;28;19930;-48
2021/11/09 00:29:31;;;;;;;;;;;;;;;;;;2114392;28;19924;-47
2021/11/09 00:30:33;;;;;;;;;;;;;;;;;;2122656;27;19931;-47
2021/11/09 00:31:34;;;;;;;;;;;;;;;;;;2123455;28;20371;-47
2021/11/09 00:32:34;;;;;;;;;;;;;;;;;;2122252;28;19965;-48
2021/11/09 00:33:35;;;;;;;;;;;;;;;;;;2122216;27;19923;-48
2021/11/09 00:34:36;;;;;;;;;;;;;;;;;;2123492;28;20041;-47
2021/11/09 00:35:37;;;;;;;;;;;;;;;;;;2121370;27;20388;-48
2021/11/09 00:36:38;;;;;;;;;;;;;;;;;;2122630;27;19923;-49
2021/11/09 00:37:39;;;;;;;;;;;;;;;;;;2123278;28;19928;-48
2021/11/09 00:38:40;;;;;;;;;;;;;;;;;;2120646;27;19924;-46
2021/11/09 00:39:41;;;;;;;;;;;;;;;;;;2122099;27;19975;-48
2021/11/09 00:40:42;;;;;;;;;;;;;;;;;;2123327;28;19923;-48
2021/11/09 00:41:43;;;;;;;;;;;;;;;;;;2122527;27;20273;-48
2021/11/09 00:42:44;;;;;;;;;;;;;;;;;;2118427;27;19928;-47
2021/11/09 00:43:45;;;;;;;;;;;;;;;;;;2114922;28;19923;-48
2021/11/09 00:44:46;;;;;;;;;;;;;;;;;;2118463;27;20444;-47
2021/11/09 00:45:47;;;;;;;;;;;;;;;;;;2129293;27;19937;-48
2021/11/09 00:46:48;;;;;;;;;;;;;;;;;;2131850;27;19975;-49
2021/11/09 00:47:48;;;;;;;;;;;;;;;;;;2126918;27;20444;-49
2021/11/09 00:48:49;;;;;;;;;;;;;;;;;;2116570;27;20016;-48
2021/11/09 00:49:50;;;;;;;;;;;;;;;;;;2114793;28;19977;-48
2021/11/09 00:50:53;;;;;;;;;;;;;;;;;;2118530;27;19930;-48
2021/11/09 00:51:54;;;;;;;;;;;;;;;;;;2123033;28;19927;-47
2021/11/09 00:52:54;;;;;;;;;;;;;;;;;;2123312;28;19931;-47
2021/11/09 00:53:55;;;;;;;;;;;;;;;;;;2119558;27;19923;-46
2021/11/09 00:54:56;;;;;;;;;;;;;;;;;;2123142;28;19923;-49
2021/11/09 00:55:57;;;;;;;;;;;;;;;;;;2123242;28;19931;-50
2021/11/09 00:56:58;;;;;;;;;;;;;;;;;;2120549;27;19930;-48
2021/11/09 00:57:58;;;;;;;;;;;;;;;;;;2123341;28;19931;-48
2021/11/09 00:59:00;;;;;;;;;;;;;;;;;;2123200;28;19930;-48
2021/11/09 01:00:01;;;;;;;;;;;;;;;;;;2120795;27;19923;-47
2021/11/09 01:01:02;;;;;;;;;;;;;;;;;;2123138;28;19923;-47
2021/11/09 01:02:03;;;;;;;;;;;;;;;;;;2122651;28;19924;-47
2021/11/09 01:03:04;;;;;;;;;;;;;;;;;;2122491;27;19928;-49
2021/11/09 01:04:05;;;;;;;;;;;;;;;;;;2123300;28;19945;-48
2021/11/09 01:05:06;;;;;;;;;;;;;;;;;;2122643;28;20376;-48
2021/11/09 01:06:06;;;;;;;;;;;;;;;;;;2122339;27;19927;-48
2021/11/09 01:07:07;;;;;;;;;;;;;;;;;;2122770;28;19930;-48
2021/11/09 01:08:09;;;;;;;;;;;;;;;;;;2122256;28;20078;-48
2021/11/09 01:09:10;;;;;;;;;;;;;;;;;;2121754;27;20387;-47
2021/11/09 01:10:11;;;;;;;;;;;;;;;;;;2123122;28;19923;-48
2021/11/09 01:11:12;;;;;;;;;;;;;;;;;;2121629;28;19927;-47
2021/11/09 01:12:13;;;;;;;;;;;;;;;;;;2122458;27;19971;-48
2021/11/09 01:13:13;;;;;;;;;;;;;;;;;;2123275;28;20286;-48
2021/11/09 01:14:14;;;;;;;;;;;;;;;;;;2121567;27;19923;-49
2021/11/09 01:15:15;;;;;;;;;;;;;;;;;;2122029;27;19923;-47
2021/11/09 01:16:16;;;;;;;;;;;;;;;;;;2123124;28;19923;-48
2021/11/09 01:17:18;;;;;;;;;;;;;;;;;;2120844;27;19928;-47
2021/11/09 01:18:18;;;;;;;;;;;;;;;;;;2128367;27;19923;-48
2021/11/09 01:19:19;;;;;;;;;;;;;;;;;;2131576;27;20030;-47
2021/11/09 01:20:21;;;;;;;;;;;;;;;;;;2126791;27;19928;-47
2021/11/09 01:21:22;;;;;;;;;;;;;;;;;;2117921;27;20417;-47
2021/11/09 01:22:22;;;;;;;;;;;;;;;;;;2114480;28;19932;-48
2021/11/09 01:23:23;;;;;;;;;;;;;;;;;;2118320;27;19924;-47
2021/11/09 01:24:24;;;;;;;;;;;;;;;;;;2122245;28;19924;-47
2021/11/09 01:25:25;;;;;;;;;;;;;;;;;;2123142;28;20436;-48
2021/11/09 01:26:26;;;;;;;;;;;;;;;;;;2120902;27;20291;-47
2021/11/09 01:27:27;;;;;;;;;;;;;;;;;;2122740;28;20383;-47
2021/11/09 01:28:27;;;;;;;;;;;;;;;;;;2123076;28;19923;-48
2021/11/09 01:29:28;;;;;;;;;;;;;;;;;;2120794;27;20300;-48
2021/11/09 01:30:29;;;;;;;;;;;;;;;;;;2122813;28;20325;-47
2021/11/09 01:31:30;;;;;;;;;;;;;;;;;;2123080;28;20006;-49
2021/11/09 01:32:30;;;;;;;;;;;;;;;;;;2123916;27;19923;-47
2021/11/09 01:33:31;;;;;;;;;;;;;;;;;;2123034;28;19924;-47
2021/11/09 01:34:32;;;;;;;;;;;;;;;;;;2123040;28;19941;-48
2021/11/09 01:35:33;;;;;;;;;;;;;;;;;;2122729;27;19956;-48
2021/11/09 01:36:33;;;;;;;;;;;;;;;;;;2124619;28;19923;-48
2021/11/09 01:37:34;;;;;;;;;;;;;;;;;;2124689;28;19928;-46
2021/11/09 01:38:36;;;;;;;;;;;;;;;;;;2120601;27;19924;-46
2021/11/09 01:39:36;;;;;;;;;;;;;;;;;;2124509;28;19938;-47
2021/11/09 01:40:38;;;;;;;;;;;;;;;;;;2124072;28;20052;-47
2021/11/09 01:41:39;;;;;;;;;;;;;;;;;;2125775;27;19987;-46
2021/11/09 01:42:40;;;;;;;;;;;;;;;;;;2124446;28;19923;-48
2021/11/09 01:43:41;;;;;;;;;;;;;;;;;;2123955;28;19976;-47
2021/11/09 01:44:41;;;;;;;;;;;;;;;;;;2122424;27;20391;-47
2021/11/09 01:45:44;;;;;;;;;;;;;;;;;;2124389;28;19934;-48
2021/11/09 01:46:46;;;;;;;;;;;;;;;;;;2123686;28;19925;-48
2021/11/09 01:47:46;;;;;;;;;;;;;;;;;;2123657;27;19923;-46
2021/11/09 01:48:47;;;;;;;;;;;;;;;;;;2116102;28;19924;-47
2021/11/09 01:49:48;;;;;;;;;;;;;;;;;;2116894;27;19931;-48
2021/11/09 01:50:49;;;;;;;;;;;;;;;;;;2122792;27;19923;-46
2021/11/09 01:51:50;;;;;;;;;;;;;;;;;;2115940;28;20437;-47
2021/11/09 01:52:50;;;;;;;;;;;;;;;;;;2117198;28;19927;-47
2021/11/09 01:53:53;;;;;;;;;;;;;;;;;;2119129;28;19981;-46
2021/11/09 01:54:53;;;;;;;;;;;;;;;;;;2115974;28;20019;-47
2021/11/09 01:55:54;;;;;;;;;;;;;;;;;;2118865;27;19927;-47
2021/11/09 01:56:55;;;;;;;;;;;;;;;;;;2122779;28;19968;-47
2021/11/09 01:57:56;;;;;;;;;;;;;;;;;;2124500;28;19930;-47
2021/11/09 01:58:56;;;;;;;;;;;;;;;;;;2123264;27;20296;-48
2021/11/09 02:00:02;;;;;;;;;;;;;;;;;;2124043;28;19923;-46
2021/11/09 02:01:03;;;;;;;;;;;;;;;;;;2124397;28;19924;-46
2021/11/09 02:02:04;;;;;;;;;;;;;;;;;;2122053;27;19924;-47
2021/11/09 02:03:05;;;;;;;;;;;;;;;;;;2126507;27;19923;-47
2021/11/09 02:04:06;;;;;;;;;;;;;;;;;;2124350;28;20023;-47
2021/11/09 02:05:07;;;;;;;;;;;;;;;;;;2125473;27;19927;-47
2021/11/09 02:06:08;;;;;;;;;;;;;;;;;;2115922;28;19927;-47
2021/11/09 02:07:09;;;;;;;;;;;;;;;;;;2115905;28;19931;-47
2021/11/09 02:08:09;;;;;;;;;;;;;;;;;;2122328;27;19923;-46
2021/11/09 02:09:10;;;;;;;;;;;;;;;;;;2133182;27;19946;-47
2021/11/09 02:10:11;;;;;;;;;;;;;;;;;;2132593;27;19923;-47
2021/11/09 02:11:12;;;;;;;;;;;;;;;;;;2120453;27;19934;-47
2021/11/09 02:12:13;;;;;;;;;;;;;;;;;;2115003;28;19931;-47
2021/11/09 02:13:14;;;;;;;;;;;;;;;;;;2121198;28;19923;-47
2021/11/09 02:14:15;;;;;;;;;;;;;;;;;;2122260;27;20727;-47
2021/11/09 02:15:16;;;;;;;;;;;;;;;;;;2124276;28;19931;-48
2021/11/09 02:16:16;;;;;;;;;;;;;;;;;;2123837;28;19931;-46
2021/11/09 02:17:17;;;;;;;;;;;;;;;;;;2122204;27;19923;-47
2021/11/09 02:18:18;;;;;;;;;;;;;;;;;;2124293;28;20299;-47
2021/11/09 02:19:19;;;;;;;;;;;;;;;;;;2123906;28;19923;-48
2021/11/09 02:20:19;;;;;;;;;;;;;;;;;;2126382;27;19931;-47
2021/11/09 02:21:20;;;;;;;;;;;;;;;;;;2132953;27;19945;-47
2021/11/09 02:22:21;;;;;;;;;;;;;;;;;;2129533;27;19980;-48
2021/11/09 02:23:22;;;;;;;;;;;;;;;;;;2123112;27;20010;-49
2021/11/09 02:24:23;;;;;;;;;;;;;;;;;;2124246;28;19923;-47
2021/11/09 02:25:24;;;;;;;;;;;;;;;;;;2122166;28;20394;-46
2021/11/09 02:26:25;;;;;;;;;;;;;;;;;;2128024;27;19927;-47
2021/11/09 02:27:26;;;;;;;;;;;;;;;;;;2132781;27;20268;-47
2021/11/09 02:28:27;;;;;;;;;;;;;;;;;;2127376;27;20360;-47
2021/11/09 02:29:27;;;;;;;;;;;;;;;;;;2118977;28;20269;-47
2021/11/09 02:30:28;;;;;;;;;;;;;;;;;;2115826;28;20280;-47
2021/11/09 02:31:30;;;;;;;;;;;;;;;;;;2118521;27;19927;-47
2021/11/09 02:32:30;;;;;;;;;;;;;;;;;;2122765;28;19980;-47
2021/11/09 02:33:31;;;;;;;;;;;;;;;;;;2124169;28;19924;-47
2021/11/09 02:34:32;;;;;;;;;;;;;;;;;;2123210;27;19928;-47
2021/11/09 02:35:33;;;;;;;;;;;;;;;;;;2122600;28;20019;-47
2021/11/09 02:36:34;;;;;;;;;;;;;;;;;;2124135;28;19924;-48
2021/11/09 02:37:34;;;;;;;;;;;;;;;;;;2122412;27;19977;-48
2021/11/09 02:38:36;;;;;;;;;;;;;;;;;;2123129;28;19931;-47
2021/11/09 02:39:36;;;;;;;;;;;;;;;;;;2124107;28;20022;-47
2021/11/09 02:40:38;;;;;;;;;;;;;;;;;;2121686;27;19923;-47
2021/11/09 02:41:39;;;;;;;;;;;;;;;;;;2124079;28;19924;-48
2021/11/09 02:42:40;;;;;;;;;;;;;;;;;;2124171;28;20014;-47
2021/11/09 02:43:41;;;;;;;;;;;;;;;;;;2121794;27;20022;-46
2021/11/09 02:44:48;;;;;;;;;;;;;;;;;;2123989;28;20300;-49
2021/11/09 02:45:58;;;;;;;;;;;;;;;;;;2124207;28;19925;-46
2021/11/09 02:47:03;;;;;;;;;;;;;;;;;;2121048;27;20288;-47
2021/11/09 02:48:08;;;;;;;;;;;;;;;;;;2124089;28;20018;-47
2021/11/09 02:49:14;;;;;;;;;;;;;;;;;;2122133;27;19929;-47
2021/11/09 02:50:16;;;;;;;;;;;;;;;;;;2117563;28;20014;-47
2021/11/09 02:51:20;;;;;;;;;;;;;;;;;;2115532;28;20363;-47
2021/11/09 02:52:22;;;;;;;;;;;;;;;;;;2119235;27;20416;-47
2021/11/09 02:53:32;;;;;;;;;;;;;;;;;;2122903;28;20064;-47
2021/11/09 02:54:36;;;;;;;;;;;;;;;;;;2124200;28;19971;-47
2021/11/09 02:55:37;;;;;;;;;;;;;;;;;;2121564;27;19923;-47
2021/11/09 02:56:42;;;;;;;;;;;;;;;;;;2123979;28;20478;-47
2021/11/09 02:57:47;;;;;;;;;;;;;;;;;;2123898;28;20072;-47
2021/11/09 02:58:53;;;;;;;;;;;;;;;;;;2122080;27;20053;-47
2021/11/09 03:00:00;;;;;;;;;;;;;;;;;;2123684;28;20457;-46
2021/11/09 03:01:07;;;;;;;;;;;;;;;;;;2122046;27;20006;-46
2021/11/09 03:02:14;;;;;;;;;;;;;;;;;;2128976;27;20025;-47
2021/11/09 03:03:19;;;;;;;;;;;;;;;;;;2122836;27;20039;-47
2021/11/09 03:04:29;;;;;;;;;;;;;;;;;;2119240;27;19923;-46
2021/11/09 03:05:40;;;;;;;;;;;;;;;;;;2115635;28;20018;-46
2021/11/09 03:06:46;;;;;;;;;;;;;;;;;;2115421;28;20403;-46
2021/11/09 03:07:50;;;;;;;;;;;;;;;;;;2122672;27;19924;-48
2021/11/09 03:08:56;;;;;;;;;;;;;;;;;;2115368;28;20443;-48
2021/11/09 03:10:00;;;;;;;;;;;;;;;;;;2116888;27;20018;-47
2021/11/09 03:11:01;;;;;;;;;;;;;;;;;;2123564;27;20032;-47
2021/11/09 03:12:04;;;;;;;;;;;;;;;;;;2123817;28;20007;-47
2021/11/09 03:13:05;;;;;;;;;;;;;;;;;;2123991;27;20018;-47
2021/11/09 03:14:06;;;;;;;;;;;;;;;;;;2122433;28;20025;-48
2021/11/09 03:15:07;;;;;;;;;;;;;;;;;;2123916;28;20384;-47
2021/11/09 03:16:10;;;;;;;;;;;;;;;;;;2121586;28;20018;-47
2021/11/09 03:17:16;;;;;;;;;;;;;;;;;;2116590;28;19924;-47
2021/11/09 03:18:19;;;;;;;;;;;;;;;;;;2115442;28;20018;-47
2021/11/09 03:19:29;;;;;;;;;;;;;;;;;;2120026;27;20450;-48
2021/11/09 03:20:34;;;;;;;;;;;;;;;;;;2123774;28;19988;-47
2021/11/09 03:40:25;;;;;;;;;;;;;;;;;;2096420;28;20498;-47
2021/11/09 03:44:19;;;;;;;;;;;;;;;;;;2112773;28;20010;-47
2021/11/09 03:45:22;;;;;;;;;;;;;;;;;;2115893;28;20014;-47
2021/11/09 03:46:27;;;;;;;;;;;;;;;;;;2122162;27;20022;-47
2021/11/09 03:47:28;;;;;;;;;;;;;;;;;;2123620;28;20030;-49
2021/11/09 03:48:29;;;;;;;;;;;;;;;;;;2121741;27;19930;-50
2021/11/09 03:49:31;;;;;;;;;;;;;;;;;;2122918;27;19923;-46
2021/11/09 03:50:32;;;;;;;;;;;;;;;;;;2123746;28;19971;-46
2021/11/09 03:51:33;;;;;;;;;;;;;;;;;;2122658;27;20381;-46
2021/11/09 03:52:40;;;;;;;;;;;;;;;;;;2128390;27;19923;-48
2021/11/09 03:53:42;;;;;;;;;;;;;;;;;;2132373;27;20014;-46
2021/11/09 03:54:43;;;;;;;;;;;;;;;;;;2125160;27;19928;-47
2021/11/09 03:56:05;;;;;;;;;;;;;;;;;;2122509;28;20292;-47
2021/11/09 03:57:10;;;;;;;;;;;;;;;;;;2123021;28;20018;-46
2021/11/09 03:58:16;;;;;;;;;;;;;;;;;;2122328;27;20064;-46
2021/11/09 03:59:19;;;;;;;;;;;;;;;;;;2114384;28;20015;-48
2021/11/09 04:00:29;;;;;;;;;;;;;;;;;;2115783;27;20011;-47
2021/11/09 04:01:36;;;;;;;;;;;;;;;;;;2129827;27;19969;-49
2021/11/09 04:02:46;;;;;;;;;;;;;;;;;;2132069;27;20368;-46
2021/11/09 04:04:00;;;;;;;;;;;;;;;;;;2121062;27;19923;-47
2021/11/09 04:05:04;;;;;;;;;;;;;;;;;;2115226;28;19963;-46
2021/11/09 04:06:17;;;;;;;;;;;;;;;;;;2115421;28;20029;-48
2021/11/09 04:07:22;;;;;;;;;;;;;;;;;;2117948;28;20026;-46
2021/11/09 04:08:34;;;;;;;;;;;;;;;;;;2115004;28;20022;-47
2021/11/09 04:09:49;;;;;;;;;;;;;;;;;;2118872;27;20010;-46
2021/11/09 04:10:56;;;;;;;;;;;;;;;;;;2115082;28;20011;-46
2021/11/09 04:12:03;;;;;;;;;;;;;;;;;;2115045;28;20030;-46
2021/11/09 04:13:19;;;;;;;;;;;;;;;;;;2125135;27;19931;-46
2021/11/09 04:14:28;;;;;;;;;;;;;;;;;;2132164;27;19962;-47
2021/11/09 04:15:50;;;;;;;;;;;;;;;;;;2124916;27;19923;-47
2021/11/09 04:16:57;;;;;;;;;;;;;;;;;;2114950;28;19928;-48
2021/11/09 04:19:24;;;;;;;;;;;;;;;;;;2128035;27;19985;-47
2021/11/09 04:20:35;;;;;;;;;;;;;;;;;;2132062;27;20029;-47
2021/11/09 04:21:58;;;;;;;;;;;;;;;;;;2122817;27;19959;-46
2021/11/09 04:24:41;;;;;;;;;;;;;;;;;;2118656;27;20003;-47
2021/11/09 04:26:14;;;;;;;;;;;;;;;;;;2114902;28;20014;-47
2021/11/09 04:27:25;;;;;;;;;;;;;;;;;;2118461;27;20068;-47
2021/11/09 04:28:36;;;;;;;;;;;;;;;;;;2122228;28;20034;-47
2021/11/09 04:29:55;;;;;;;;;;;;;;;;;;2123396;28;19924;-47
2021/11/09 05:03:00;;;;;;;;;;;;;;;;;;2116882;27;19931;-48
2021/11/09 05:09:31;;;;;;;;;;;;;;;;;;2096194;28;20487;-48
2021/11/09 05:10:33;;;;;;;;;;;;;;;;;;2114828;28;19923;-47
2021/11/09 05:11:34;;;;;;;;;;;;;;;;;;2121314;27;20551;-47
2021/11/09 05:12:35;;;;;;;;;;;;;;;;;;2121481;27;19923;-48
2021/11/09 05:13:36;;;;;;;;;;;;;;;;;;2123046;28;19924;-48
2021/11/09 05:14:37;;;;;;;;;;;;;;;;;;2121219;28;20409;-48
2021/11/09 05:15:38;;;;;;;;;;;;;;;;;;2116565;28;20010;-47
2021/11/09 05:16:39;;;;;;;;;;;;;;;;;;2114635;28;19972;-47
2021/11/09 05:17:40;;;;;;;;;;;;;;;;;;2117841;27;19974;-47
2021/11/09 05:18:41;;;;;;;;;;;;;;;;;;2121748;28;19923;-47
2021/11/09 05:19:42;;;;;;;;;;;;;;;;;;2123205;28;20018;-48
2021/11/09 05:20:42;;;;;;;;;;;;;;;;;;2120812;28;20061;-47
2021/11/09 05:21:43;;;;;;;;;;;;;;;;;;2130508;27;20429;-47
2021/11/09 05:22:44;;;;;;;;;;;;;;;;;;2131632;27;19923;-50
2021/11/09 05:23:45;;;;;;;;;;;;;;;;;;2124054;27;20026;-48
2021/11/09 05:24:46;;;;;;;;;;;;;;;;;;2122565;28;19923;-47
2021/11/09 05:25:48;;;;;;;;;;;;;;;;;;2122963;28;20436;-47
2021/11/09 05:26:49;;;;;;;;;;;;;;;;;;2121109;27;20002;-47
2021/11/09 05:27:51;;;;;;;;;;;;;;;;;;2131604;27;19929;-48
2021/11/09 05:28:52;;;;;;;;;;;;;;;;;;2131657;27;19923;-47
2021/11/09 05:29:53;;;;;;;;;;;;;;;;;;2122026;27;19934;-48
2021/11/09 05:30:54;;;;;;;;;;;;;;;;;;2123113;28;19998;-48
2021/11/09 05:31:58;;;;;;;;;;;;;;;;;;2123106;28;20010;-47
2021/11/09 05:33:00;;;;;;;;;;;;;;;;;;2122905;27;19971;-46
2021/11/09 05:34:01;;;;;;;;;;;;;;;;;;2131711;27;20017;-47
2021/11/09 05:35:02;;;;;;;;;;;;;;;;;;2130552;27;20069;-46
2021/11/09 05:36:04;;;;;;;;;;;;;;;;;;2120930;27;20454;-47
2021/11/09 05:37:09;;;;;;;;;;;;;;;;;;2123079;28;19980;-48
2021/11/09 05:38:12;;;;;;;;;;;;;;;;;;2121858;28;20010;-47
2021/11/09 05:39:16;;;;;;;;;;;;;;;;;;2128245;27;19972;-46
2021/11/09 05:40:19;;;;;;;;;;;;;;;;;;2131506;27;19930;-47
2021/11/09 05:41:21;;;;;;;;;;;;;;;;;;2127017;27;19975;-47
2021/11/09 05:42:22;;;;;;;;;;;;;;;;;;2117549;27;20022;-47
2021/11/09 05:43:23;;;;;;;;;;;;;;;;;;2114478;28;20399;-47
2021/11/09 05:44:24;;;;;;;;;;;;;;;;;;2118059;27;19923;-47
2021/11/09 05:45:25;;;;;;;;;;;;;;;;;;2121663;28;20047;-47
2021/11/09 05:46:26;;;;;;;;;;;;;;;;;;2123061;28;19934;-47
2021/11/09 05:47:28;;;;;;;;;;;;;;;;;;2119628;28;19931;-47
2021/11/09 05:48:29;;;;;;;;;;;;;;;;;;2122333;28;19930;-47
2021/11/09 05:49:30;;;;;;;;;;;;;;;;;;2122873;28;20496;-46
2021/11/09 05:50:31;;;;;;;;;;;;;;;;;;2122554;27;19923;-48
2021/11/09 05:51:32;;;;;;;;;;;;;;;;;;2115118;28;19924;-47
2021/11/09 05:52:33;;;;;;;;;;;;;;;;;;2114480;28;19957;-48
2021/11/09 05:53:35;;;;;;;;;;;;;;;;;;2122333;27;19923;-51
2021/11/09 05:54:36;;;;;;;;;;;;;;;;;;2114484;28;19962;-46
2021/11/09 05:55:36;;;;;;;;;;;;;;;;;;2114451;28;19924;-50
2021/11/09 05:56:41;;;;;;;;;;;;;;;;;;2119962;27;20018;-47
2021/11/09 05:57:41;;;;;;;;;;;;;;;;;;2122800;28;20448;-46
2021/11/09 05:58:42;;;;;;;;;;;;;;;;;;2122506;28;20383;-49
2021/11/09 05:59:43;;;;;;;;;;;;;;;;;;2122863;27;19927;-47
2021/11/09 06:00:44;;;;;;;;;;;;;;;;;;2114246;28;20265;-47
2021/11/09 06:01:46;;;;;;;;;;;;;;;;;;2114495;28;20307;-47
2021/11/09 06:02:47;;;;;;;;;;;;;;;;;;2121537;27;19927;-46
2021/11/09 06:03:48;;;;;;;;;;;;;;;;;;2114573;28;19924;-46
2021/11/09 06:04:52;;;;;;;;;;;;;;;;;;2115298;28;20327;-48
2021/11/09 06:05:53;;;;;;;;;;;;;;;;;;2122209;27;20018;-48
2021/11/09 06:06:54;;;;;;;;;;;;;;;;;;2122868;28;19928;-46
2021/11/09 06:07:54;;;;;;;;;;;;;;;;;;2120950;27;19928;-48
2021/11/09 06:08:55;;;;;;;;;;;;;;;;;;2121367;27;19924;-47
2021/11/09 06:09:56;;;;;;;;;;;;;;;;;;2114269;28;19923;-48
2021/11/09 06:10:57;;;;;;;;;;;;;;;;;;2116316;27;19924;-48
2021/11/09 06:11:58;;;;;;;;;;;;;;;;;;2119962;27;19924;-48
2021/11/09 06:12:59;;;;;;;;;;;;;;;;;;2114332;28;20346;-48
2021/11/09 06:13:59;;;;;;;;;;;;;;;;;;2117399;27;20279;-49
2021/11/09 06:15:00;;;;;;;;;;;;;;;;;;2119114;27;19928;-47
2021/11/09 06:16:01;;;;;;;;;;;;;;;;;;2114371;28;19924;-48
2021/11/09 06:17:02;;;;;;;;;;;;;;;;;;2115806;28;19924;-48
2021/11/09 06:18:03;;;;;;;;;;;;;;;;;;2122414;28;19939;-46
2021/11/09 06:19:04;;;;;;;;;;;;;;;;;;2122798;28;19934;-48
2021/11/09 06:20:04;;;;;;;;;;;;;;;;;;2121439;27;19927;-47
2021/11/09 06:21:05;;;;;;;;;;;;;;;;;;2121648;28;19924;-50
2021/11/09 06:22:06;;;;;;;;;;;;;;;;;;2123325;28;19923;-48
2021/11/09 06:23:07;;;;;;;;;;;;;;;;;;2120784;28;19928;-47
2021/11/09 06:24:07;;;;;;;;;;;;;;;;;;2132606;27;19931;-48
2021/11/09 06:25:08;;;;;;;;;;;;;;;;;;2132719;27;19948;-48
2021/11/09 06:26:09;;;;;;;;;;;;;;;;;;2123662;27;19930;-48
2021/11/09 06:27:10;;;;;;;;;;;;;;;;;;2124140;28;19925;-50
2021/11/09 06:28:11;;;;;;;;;;;;;;;;;;2124303;28;19923;-48
2021/11/09 06:29:12;;;;;;;;;;;;;;;;;;2125267;27;19939;-48
2021/11/09 06:30:12;;;;;;;;;;;;;;;;;;2115853;28;19927;-47
2021/11/09 06:31:13;;;;;;;;;;;;;;;;;;2115658;28;20492;-49
2021/11/09 06:32:14;;;;;;;;;;;;;;;;;;2123422;27;19937;-47
2021/11/09 06:33:15;;;;;;;;;;;;;;;;;;2115748;28;19931;-48
2021/11/09 06:34:16;;;;;;;;;;;;;;;;;;2115579;28;20493;-48
2021/11/09 06:35:17;;;;;;;;;;;;;;;;;;2122636;27;20421;-48
2021/11/09 06:36:17;;;;;;;;;;;;;;;;;;2124126;28;19939;-48
2021/11/09 06:37:18;;;;;;;;;;;;;;;;;;2123588;28;19929;-48
2021/11/09 06:38:19;;;;;;;;;;;;;;;;;;2122031;27;19924;-48
2021/11/09 06:39:20;;;;;;;;;;;;;;;;;;2124314;28;19931;-47
2021/11/09 06:40:21;;;;;;;;;;;;;;;;;;2123730;28;19924;-48
2021/11/09 06:41:21;;;;;;;;;;;;;;;;;;2125571;27;19923;-47
2021/11/09 06:42:22;;;;;;;;;;;;;;;;;;2132619;27;19930;-48
2021/11/09 06:43:23;;;;;;;;;;;;;;;;;;2130209;27;19933;-48
2021/11/09 06:44:24;;;;;;;;;;;;;;;;;;2122221;27;19949;-48
2021/11/09 06:45:25;;;;;;;;;;;;;;;;;;2124158;28;19930;-48
2021/11/09 06:46:26;;;;;;;;;;;;;;;;;;2122621;28;20018;-47
2021/11/09 06:47:27;;;;;;;;;;;;;;;;;;2122699;27;19984;-49
2021/11/09 06:48:29;;;;;;;;;;;;;;;;;;2115628;28;19924;-48
2021/11/09 06:49:30;;;;;;;;;;;;;;;;;;2116965;27;20456;-48
2021/11/09 06:50:31;;;;;;;;;;;;;;;;;;2123134;27;19924;-48
2021/11/09 06:51:32;;;;;;;;;;;;;;;;;;2124184;28;20018;-49
2021/11/09 06:52:33;;;;;;;;;;;;;;;;;;2121677;28;19924;-48
2021/11/09 06:53:34;;;;;;;;;;;;;;;;;;2130414;27;19931;-47
2021/11/09 06:54:36;;;;;;;;;;;;;;;;;;2132507;27;20464;-48
2021/11/09 06:55:38;;;;;;;;;;;;;;;;;;2125684;27;20283;-48
2021/11/09 06:56:38;;;;;;;;;;;;;;;;;;2122580;28;20400;-48
2021/11/09 06:57:39;;;;;;;;;;;;;;;;;;2124069;28;19927;-48
2021/11/09 06:58:40;;;;;;;;;;;;;;;;;;2122255;27;19931;-48
2021/11/09 06:59:41;;;;;;;;;;;;;;;;;;2123157;28;20070;-48
2021/11/09 07:00:42;;;;;;;;;;;;;;;;;;2123925;28;19924;-48
2021/11/09 07:01:46;;;;;;;;;;;;;;;;;;2120237;27;19931;-51
2021/11/09 07:02:47;;;;;;;;;;;;;;;;;;2130602;27;19948;-48
2021/11/09 07:03:48;;;;;;;;;;;;;;;;;;2115670;28;19927;-50
2021/11/09 07:04:48;;;;;;;;;;;;;;;;;;2123385;27;19923;-48
2021/11/09 07:05:49;;;;;;;;;;;;;;;;;;2115457;28;20006;-49
2021/11/09 07:06:50;;;;;;;;;;;;;;;;;;2115428;28;20011;-51
2021/11/09 07:07:51;;;;;;;;;;;;;;;;;;2120718;27;20296;-48
2021/11/09 07:08:53;;;;;;;;;;;;;;;;;;2123924;28;19924;-48
2021/11/09 07:09:54;;;;;;;;;;;;;;;;;;2123870;28;20373;-48
2021/11/09 07:10:55;;;;;;;;;;;;;;;;;;2120580;27;20316;-43
2021/11/09 07:11:55;;;;;;;;;;;;;;;;;;2123984;28;20303;-43
2021/11/09 07:12:56;;;;;;;;;;;;;;;;;;2123374;28;19923;-44
2021/11/09 07:13:57;;;;;;;;;;;;;;;;;;2125306;27;19924;-44
2021/11/09 07:14:58;;;;;;;;;;;;;;;;;;2123832;28;19931;-43
2021/11/09 07:16:00;;;;;;;;;;;;;;;;;;2123342;28;20010;-43
2021/11/09 07:17:01;;;;;;;;;;;;;;;;;;2126121;27;20018;-43
2021/11/09 07:18:02;;;;;;;;;;;;;;;;;;2132572;27;19923;-44
2021/11/09 07:19:03;;;;;;;;;;;;;;;;;;2129237;27;20002;-44
2021/11/09 07:20:03;;;;;;;;;;;;;;;;;;2127536;27;20411;-43
2021/11/09 07:21:04;;;;;;;;;;;;;;;;;;2132376;27;19923;-43
2021/11/09 07:22:05;;;;;;;;;;;;;;;;;;2127761;27;20283;-44
2021/11/09 07:23:06;;;;;;;;;;;;;;;;;;2120161;27;20327;-43
2021/11/09 07:24:07;;;;;;;;;;;;;;;;;;2115282;28;19928;-43
2021/11/09 07:25:08;;;;;;;;;;;;;;;;;;2116590;28;20044;-43
2021/11/09 07:26:09;;;;;;;;;;;;;;;;;;2129298;27;19923;-43
2021/11/09 07:27:09;;;;;;;;;;;;;;;;;;2132273;27;19923;-43
2021/11/09 07:28:10;;;;;;;;;;;;;;;;;;2126093;27;20364;-43
2021/11/09 07:29:11;;;;;;;;;;;;;;;;;;2118091;28;19924;-43
2021/11/09 07:30:12;;;;;;;;;;;;;;;;;;2115284;28;19923;-43
2021/11/09 07:31:14;;;;;;;;;;;;;;;;;;2117423;27;19928;-43
2021/11/09 07:32:16;;;;;;;;;;;;;;;;;;2122526;28;19930;-43
2021/11/09 07:33:17;;;;;;;;;;;;;;;;;;2123760;27;20015;-44
2021/11/09 07:34:18;;;;;;;;;;;;;;;;;;2121440;28;19930;-43
2021/11/09 07:35:19;;;;;;;;;;;;;;;;;;2116286;28;19946;-44
2021/11/09 07:36:20;;;;;;;;;;;;;;;;;;2115224;28;19928;-43
2021/11/09 07:37:21;;;;;;;;;;;;;;;;;;2119102;27;20010;-43
2021/11/09 07:38:22;;;;;;;;;;;;;;;;;;2123534;28;19931;-43
2021/11/09 07:39:25;;;;;;;;;;;;;;;;;;2123659;28;20420;-43
2021/11/09 07:40:26;;;;;;;;;;;;;;;;;;2119760;27;20329;-44
2021/11/09 07:41:27;;;;;;;;;;;;;;;;;;2123274;28;19975;-43
2021/11/09 07:42:28;;;;;;;;;;;;;;;;;;2123635;28;19927;-44
2021/11/09 07:43:28;;;;;;;;;;;;;;;;;;2123575;27;20034;-44
2021/11/09 07:44:29;;;;;;;;;;;;;;;;;;2115489;28;19931;-48
2021/11/09 07:45:30;;;;;;;;;;;;;;;;;;2115290;28;19930;-49
2021/11/09 07:46:31;;;;;;;;;;;;;;;;;;2122188;27;20022;-48
2021/11/09 07:47:32;;;;;;;;;;;;;;;;;;2115090;28;20337;-47
2021/11/09 07:48:33;;;;;;;;;;;;;;;;;;2115324;28;19957;-48
2021/11/09 07:49:34;;;;;;;;;;;;;;;;;;2121786;27;20018;-48
2021/11/09 07:50:35;;;;;;;;;;;;;;;;;;2123610;28;20398;-49
2021/11/09 07:51:36;;;;;;;;;;;;;;;;;;2123142;28;19931;-48
2021/11/09 07:52:37;;;;;;;;;;;;;;;;;;2122251;27;19932;-48
2021/11/09 07:53:40;;;;;;;;;;;;;;;;;;2115273;28;20023;-48
2021/11/09 07:54:44;;;;;;;;;;;;;;;;;;2116070;28;20003;-48
2021/11/09 07:55:49;;;;;;;;;;;;;;;;;;2126711;27;19965;-47
2021/11/09 07:56:58;;;;;;;;;;;;;;;;;;2132282;27;20009;-48
2021/11/09 07:57:59;;;;;;;;;;;;;;;;;;2125752;27;20373;-47
2021/11/09 07:59:13;;;;;;;;;;;;;;;;;;2123314;28;20371;-47
2021/11/09 08:00:27;;;;;;;;;;;;;;;;;;2123785;28;20018;-48
2021/11/09 08:01:32;;;;;;;;;;;;;;;;;;2121109;27;19923;-48
2021/11/09 08:02:44;;;;;;;;;;;;;;;;;;2123466;28;20373;-49
2021/11/09 08:03:48;;;;;;;;;;;;;;;;;;2121105;27;20010;-48
2021/11/09 08:04:52;;;;;;;;;;;;;;;;;;2122126;28;19951;-49
2021/11/09 08:06:09;;;;;;;;;;;;;;;;;;2123519;28;19968;-47
2021/11/09 08:07:13;;;;;;;;;;;;;;;;;;2123835;27;19927;-47
2021/11/09 08:08:15;;;;;;;;;;;;;;;;;;2115169;28;19928;-49